地図

経路データ

SID SEASON NUMBER BASIN SUBBASIN NAME ISO_TIME NATURE LAT LON WMO_WIND WMO_PRES WMO_AGENCY TRACK_TYPE DIST2LAND LANDFALL IFLAG USA_AGENCY USA_ATCF_ID USA_LAT USA_LON USA_RECORD USA_STATUS USA_WIND USA_PRES USA_SSHS USA_R34_NE USA_R34_SE USA_R34_SW USA_R34_NW USA_R50_NE USA_R50_SE USA_R50_SW USA_R50_NW USA_R64_NE USA_R64_SE USA_R64_SW USA_R64_NW USA_POCI USA_ROCI USA_RMW USA_EYE TOKYO_LAT TOKYO_LON TOKYO_GRADE TOKYO_WIND TOKYO_PRES TOKYO_R50_DIR TOKYO_R50_LONG TOKYO_R50_SHORT TOKYO_R30_DIR TOKYO_R30_LONG TOKYO_R30_SHORT TOKYO_LAND CMA_LAT CMA_LON CMA_CAT CMA_WIND CMA_PRES HKO_LAT HKO_LON HKO_CAT HKO_WIND HKO_PRES NEWDELHI_LAT NEWDELHI_LON NEWDELHI_GRADE NEWDELHI_WIND NEWDELHI_PRES NEWDELHI_CI NEWDELHI_DP NEWDELHI_POCI REUNION_LAT REUNION_LON REUNION_TYPE REUNION_WIND REUNION_PRES REUNION_TNUM REUNION_CI REUNION_RMW REUNION_R34_NE REUNION_R34_SE REUNION_R34_SW REUNION_R34_NW REUNION_R50_NE REUNION_R50_SE REUNION_R50_SW REUNION_R50_NW REUNION_R64_NE REUNION_R64_SE REUNION_R64_SW REUNION_R64_NW BOM_LAT BOM_LON BOM_TYPE BOM_WIND BOM_PRES BOM_TNUM BOM_CI BOM_RMW BOM_R34_NE BOM_R34_SE BOM_R34_SW BOM_R34_NW BOM_R50_NE BOM_R50_SE BOM_R50_SW BOM_R50_NW BOM_R64_NE BOM_R64_SE BOM_R64_SW BOM_R64_NW BOM_ROCI BOM_POCI BOM_EYE BOM_POS_METHOD BOM_PRES_METHOD NADI_LAT NADI_LON NADI_CAT NADI_WIND NADI_PRES WELLINGTON_LAT WELLINGTON_LON WELLINGTON_WIND WELLINGTON_PRES DS824_LAT DS824_LON DS824_STAGE DS824_WIND DS824_PRES TD9636_LAT TD9636_LON TD9636_STAGE TD9636_WIND TD9636_PRES TD9635_LAT TD9635_LON TD9635_WIND TD9635_PRES TD9635_ROCI NEUMANN_LAT NEUMANN_LON NEUMANN_CLASS NEUMANN_WIND NEUMANN_PRES MLC_LAT MLC_LON MLC_CLASS MLC_WIND MLC_PRES USA_GUST BOM_GUST BOM_GUST_PER REUNION_GUST REUNION_GUST_PER USA_SEAHGT USA_SEARAD_NE USA_SEARAD_SE USA_SEARAD_SW USA_SEARAD_NW STORM_SPEED STORM_DIR
1988202N15248 1988 36 EP MM DANIEL 1988-07-19 12:00:00 TS 14.6000 -112.500 25 1009 hurdat_epa main 954 954 O_________O___ hurdat_epa EP041988 14.6000 -112.500 TD 25 1009 -1 14.6000 -112.500 1 25 6 302
1988202N15248 1988 36 EP MM DANIEL 1988-07-19 15:00:00 TS 14.7561 -112.755 main 952 945 P_________P___ EP041988 14.7601 -112.760 TD 27 1008 -1 14.7440 -112.739 1 27 6 302
1988202N15248 1988 36 EP MM DANIEL 1988-07-19 18:00:00 TS 14.8951 -112.993 30 1007 hurdat_epa main 948 941 O_________P___ hurdat_epa EP041988 14.9000 -113.000 TD 30 1007 -1 14.8803 -112.972 1 30 5 300
1988202N15248 1988 36 EP MM DANIEL 1988-07-19 21:00:00 TS 15.0060 -113.204 main 945 938 P_________P___ EP041988 15.0075 -113.208 TD 32 1006 -1 15.0015 -113.194 1 32 4 297
1988202N15248 1988 36 EP MM DANIEL 1988-07-20 00:00:00 TS 15.1000 -113.400 35 1005 hurdat_epa main 942 936 O_________O___ hurdat_epa EP041988 15.1000 -113.400 TS 35 1005 0 15.1000 -113.400 2 35 4 296
1988202N15248 1988 36 EP MM DANIEL 1988-07-20 03:00:00 TS 15.1932 -113.597 main 940 934 P_________P___ EP041988 15.2000 -113.600 TS 37 1003 0 15.1729 -113.587 2 37 4 296
1988202N15248 1988 36 EP MM DANIEL 1988-07-20 06:00:00 TS 15.2837 -113.793 40 1002 hurdat_epa main 939 933 O_________P___ hurdat_epa EP041988 15.3000 -113.800 TS 40 1002 0 15.2346 -113.771 2 40 4 296
1988202N15248 1988 36 EP MM DANIEL 1988-07-20 09:00:00 TS 15.3760 -113.987 main 938 937 P_________P___ EP041988 15.4000 -113.993 TS 42 1001 0 15.3041 -113.969 2 42 4 296
1988202N15248 1988 36 EP MM DANIEL 1988-07-20 12:00:00 TS 15.4750 -114.200 45 1000 hurdat_epa main 937 937 O_________O___ hurdat_epa EP041988 15.5000 -114.200 TS 45 1000 0 15.4000 -114.200 2 45 5 295
1988202N15248 1988 36 EP MM DANIEL 1988-07-20 15:00:00 TS 15.5711 -114.431 main 937 937 P_________P___ EP041988 15.5849 -114.420 TS 45 1000 0 15.5298 -114.465 2 45 5 294
1988202N15248 1988 36 EP MM DANIEL 1988-07-20 18:00:00 TS 15.6974 -114.717 45 1000 hurdat_epa main 944 940 O_________P___ hurdat_epa EP041988 15.7000 -114.700 TS 45 1000 0 15.6896 -114.768 2 45 7 296
1988202N15248 1988 36 EP MM DANIEL 1988-07-20 21:00:00 TS 15.8781 -115.086 main 947 944 P_________P___ EP041988 15.8775 -115.078 TS 45 1000 0 15.8797 -115.112 2 45 9 298
1988202N15248 1988 36 EP MM DANIEL 1988-07-21 00:00:00 TS 16.1000 -115.500 45 1000 hurdat_epa main 954 951 O_________O___ hurdat_epa EP041988 16.1000 -115.500 TS 45 1000 0 16.1000 -115.500 2 45 9 301
1988202N15248 1988 36 EP MM DANIEL 1988-07-21 03:00:00 TS 16.3356 -115.888 main 962 953 P_________P___ EP041988 16.3348 -115.878 TS 45 1000 0 16.3380 -115.920 2 45 9 302
1988202N15248 1988 36 EP MM DANIEL 1988-07-21 06:00:00 TS 16.6012 -116.321 45 1000 hurdat_epa main 964 963 O_________P___ hurdat_epa EP041988 16.6000 -116.300 TS 45 1000 0 16.6048 -116.383 2 45 11 301
1988202N15248 1988 36 EP MM DANIEL 1988-07-21 09:00:00 TS 16.8929 -116.841 main 977 977 P_________P___ EP041988 16.8925 -116.828 TS 45 1000 0 16.8942 -116.879 2 45 12 300
1988202N15248 1988 36 EP MM DANIEL 1988-07-21 12:00:00 TS 17.2000 -117.400 45 1000 hurdat_epa main 1001 999 O_________O___ hurdat_epa EP041988 17.2000 -117.400 TS 45 1000 0 17.2000 -117.400 2 45 12 300
1988202N15248 1988 36 EP MM DANIEL 1988-07-21 15:00:00 TS 17.5039 -117.942 main 1004 1001 P_________P___ EP041988 17.4923 -117.950 TS 47 998 0 17.5386 -117.916 2 46 12 301
1988202N15248 1988 36 EP MM DANIEL 1988-07-21 18:00:00 TS 17.8217 -118.489 50 997 hurdat_epa main 1016 1008 O_________P___ hurdat_epa EP041988 17.8000 -118.500 TS 50 997 0 17.8868 -118.455 2 47 12 303
1988202N15248 1988 36 EP MM DANIEL 1988-07-21 21:00:00 TS 18.1777 -119.030 main 1018 1018 P_________P___ EP041988 18.1647 -119.035 TS 50 997 0 18.2166 -119.016 2 48 13 303
1988202N15248 1988 36 EP MM DANIEL 1988-07-22 00:00:00 TS 18.5000 -119.600 50 997 hurdat_epa main 1039 1039 O_________O___ hurdat_epa EP041988 18.5000 -119.600 TS 50 997 0 18.5000 -119.600 2 50 13 296
1988202N15248 1988 36 EP MM DANIEL 1988-07-22 03:00:00 TS 18.7312 -120.234 main 1070 1070 P_________P___ EP041988 18.7375 -120.243 TS 50 997 0 18.7123 -120.208 2 48 13 288
1988202N15248 1988 36 EP MM DANIEL 1988-07-22 06:00:00 TS 18.8937 -120.884 50 997 hurdat_epa main 1113 1113 O_________P___ hurdat_epa EP041988 18.9000 -120.900 TS 50 997 0 18.8747 -120.836 2 47 12 283
1988202N15248 1988 36 EP MM DANIEL 1988-07-22 09:00:00 TS 19.0166 -121.498 main 1157 1157 P_________P___ EP041988 19.0222 -121.508 TS 47 998 0 18.9997 -121.471 2 46 12 280
1988202N15248 1988 36 EP MM DANIEL 1988-07-22 12:00:00 TS 19.1000 -122.100 45 1000 hurdat_epa main 1198 1198 O_________O___ hurdat_epa EP041988 19.1000 -122.100 TS 45 1000 0 19.1000 -122.100 2 45 12 277
1988202N15248 1988 36 EP MM DANIEL 1988-07-22 15:00:00 TS 19.1533 -122.706 main 1231 1231 P_________P___ EP041988 19.1498 -122.700 TS 45 1000 0 19.1637 -122.725 2 45 11 275
1988202N15248 1988 36 EP MM DANIEL 1988-07-22 18:00:00 TS 19.2030 -123.310 45 1000 hurdat_epa main 1271 1271 O_________P___ hurdat_epa EP041988 19.2000 -123.300 TS 45 1000 0 19.2121 -123.339 2 45 11 277
1988202N15248 1988 36 EP MM DANIEL 1988-07-22 21:00:00 TS 19.2835 -123.909 main 1304 1304 P_________P___ EP041988 19.2848 -123.900 TS 45 1000 0 19.2794 -123.934 2 45 11 280
1988202N15248 1988 36 EP MM DANIEL 1988-07-23 00:00:00 TS 19.4000 -124.500 45 1000 hurdat_epa main 1339 1339 O_________O___ hurdat_epa EP041988 19.4000 -124.500 TS 45 1000 0 19.4000 -124.500 2 45 12 282
1988202N15248 1988 36 EP MM DANIEL 1988-07-23 03:00:00 TS 19.5269 -125.107 main 1376 1376 P_________P___ EP041988 19.5051 -125.130 TS 45 1000 0 19.5925 -125.037 2 45 11 287
1988202N15248 1988 36 EP MM DANIEL 1988-07-23 06:00:00 TS 19.7360 -125.661 45 1000 hurdat_epa main 1407 1400 O_________P___ hurdat_epa EP041988 19.7000 -125.700 TS 45 1000 0 19.8442 -125.545 2 45 11 301
1988202N15248 1988 36 EP MM DANIEL 1988-07-23 09:00:00 TS 20.0839 -126.111 main 1410 1410 P_________P___ EP041988 20.0622 -126.137 TS 45 1000 0 20.1488 -126.031 2 45 11 314
1988202N15248 1988 36 EP MM DANIEL 1988-07-23 12:00:00 TS 20.5000 -126.500 45 1000 hurdat_epa main 1415 1410 O_________O___ hurdat_epa EP041988 20.5000 -126.500 TS 45 1000 0 20.5000 -126.500 2 45 11 319
1988202N15248 1988 36 EP MM DANIEL 1988-07-23 15:00:00 TS 20.8966 -126.862 main 1423 1417 P_________P___ EP041988 20.8922 -126.828 TS 47 998 0 20.9098 -126.964 2 47 11 319
1988202N15248 1988 36 EP MM DANIEL 1988-07-23 18:00:00 TS 21.3142 -127.254 50 997 hurdat_epa main 1433 1427 O_________P___ hurdat_epa EP041988 21.3000 -127.200 TS 50 997 0 21.3568 -127.414 2 50 12 316
1988202N15248 1988 36 EP MM DANIEL 1988-07-23 21:00:00 TS 21.7796 -127.765 main 1448 1448 P_________P___ EP041988 21.7727 -127.735 TS 52 995 0 21.8004 -127.858 2 52 13 312
1988202N15248 1988 36 EP MM DANIEL 1988-07-24 00:00:00 TS 22.2000 -128.300 55 994 hurdat_epa main 1472 1472 O_________O___ hurdat_epa EP041988 22.2000 -128.300 TS 55 994 0 22.2000 -128.300 2 55 12 307
1988202N15248 1988 36 EP MM DANIEL 1988-07-24 03:00:00 TS 22.4837 -128.759 main 1503 1503 P_________P___ EP041988 22.4797 -128.766 TS 55 994 0 22.4956 -128.739 2 53 10 302
1988202N15248 1988 36 EP MM DANIEL 1988-07-24 06:00:00 TS 22.7110 -129.195 55 994 hurdat_epa main 1531 1531 O_________P___ hurdat_epa EP041988 22.7000 -129.200 TS 55 994 0 22.7441 -129.180 2 52 9 300
1988202N15248 1988 36 EP MM DANIEL 1988-07-24 09:00:00 TS 22.9494 -129.640 main 1558 1550 P_________P___ EP041988 22.9423 -129.643 TS 52 995 0 22.9705 -129.630 2 51 10 300
1988202N15248 1988 36 EP MM DANIEL 1988-07-24 12:00:00 TS 23.2000 -130.100 50 997 hurdat_epa main 1558 1555 O_________O___ hurdat_epa EP041988 23.2000 -130.100 TS 50 997 0 23.2000 -130.100 2 50 10 302
1988202N15248 1988 36 EP MM DANIEL 1988-07-24 15:00:00 TS 23.4949 -130.592 main 1561 1558 P_________P___ EP041988 23.4998 -130.585 TS 47 998 0 23.4800 -130.611 2 47 11 303
1988202N15248 1988 36 EP MM DANIEL 1988-07-24 18:00:00 TS 23.7913 -131.111 45 1000 hurdat_epa main 1565 1563 O_________P___ hurdat_epa EP041988 23.8000 -131.100 TS 45 1000 0 23.7650 -131.142 2 45 11 300
1988202N15248 1988 36 EP MM DANIEL 1988-07-24 21:00:00 TS 24.0594 -131.662 main 1578 1578 P_________P___ EP041988 24.0650 -131.658 TS 42 1001 0 24.0425 -131.677 2 42 11 297
1988202N15248 1988 36 EP MM DANIEL 1988-07-25 00:00:00 TS 24.3000 -132.200 40 1002 hurdat_epa main 1595 1594 O_________O___ hurdat_epa EP041988 24.3000 -132.200 TS 40 1002 0 24.3000 -132.200 2 40 10 296
1988202N15248 1988 36 EP MM DANIEL 1988-07-25 03:00:00 TS 24.5117 -132.671 main 1613 1612 P_________P___ EP041988 24.5072 -132.658 TS 37 1003 0 24.5253 -132.710 2 38 9 296
1988202N15248 1988 36 EP MM DANIEL 1988-07-25 06:00:00 TS 24.7074 -133.126 35 1005 hurdat_epa main 1626 1625 O_________P___ hurdat_epa EP041988 24.7000 -133.100 TS 35 1005 0 24.7297 -133.203 2 37 9 295
1988202N15248 1988 36 EP MM DANIEL 1988-07-25 09:00:00 TS 24.9047 -133.612 main 1647 1646 P_________P___ EP041988 24.8999 -133.593 TS 35 1005 0 24.9192 -133.670 2 36 10 294
1988202N15248 1988 36 EP MM DANIEL 1988-07-25 12:00:00 TS 25.1000 -134.100 35 1005 hurdat_epa main 1669 1669 O_________O___ hurdat_epa EP041988 25.1000 -134.100 TS 35 1005 0 25.1000 -134.100 2 35 10 294
1988202N15248 1988 36 EP MM DANIEL 1988-07-25 15:00:00 TS 25.3104 -134.615 main 1692 1692 P_________P___ EP041988 25.3077 -134.645 TS 32 1006 -1 25.3185 -134.526 2 33 10 295
1988202N15248 1988 36 EP MM DANIEL 1988-07-25 18:00:00 TS 25.5062 -135.053 30 1007 hurdat_epa main 1717 1710 O_________P___ hurdat_epa EP041988 25.5000 -135.100 TD 30 1007 -1 25.5248 -134.912 2 32 7 300
1988202N15248 1988 36 EP MM DANIEL 1988-07-25 21:00:00 TS 25.6888 -135.331 main 1719 1719 P_________P___ EP041988 25.6872 -135.360 TD 30 1007 -1 25.6937 -135.242 2 31 5 306
1988202N15248 1988 36 EP MM DANIEL 1988-07-26 00:00:00 TS 25.8000 -135.500 30 1007 hurdat_epa main 1728 1728 O_________O___ hurdat_epa EP041988 25.8000 -135.500 TD 30 1007 -1 25.8000 -135.500 1 30 3 290
1988202N15248 1988 36 EP MM DANIEL 1988-07-26 03:00:00 TS 25.7877 -135.631 main 1736 1736 P_________P___ EP041988 25.7799 -135.615 TD 30 1007 -1 25.8109 -135.680 1 28 2 247
1988202N15248 1988 36 EP MM DANIEL 1988-07-26 06:00:00 TS 25.7152 -135.722 30 1007 hurdat_epa main 1750 1750 O_________P___ hurdat_epa EP041988 25.7000 -135.700 TD 30 1007 -1 25.7608 -135.789 1 27 2 232
1988202N15248 1988 36 EP MM DANIEL 1988-07-26 09:00:00 TS 25.6576 -135.819 main 1758 1758 P_________P___ EP041988 25.6500 -135.807 TD 27 1008 -1 25.6804 -135.854 1 26 2 234
1988202N15248 1988 36 EP MM DANIEL 1988-07-26 12:00:00 TS 25.6000 -135.900 25 1009 hurdat_epa main 1773 1773 O_________O___ hurdat_epa EP041988 25.6000 -135.900 TD 25 1009 -1 25.6000 -135.900 1 25 2 229
1988202N15248 1988 36 EP MM DANIEL 1988-07-26 15:00:00 TS 25.5481 -135.957 main 1788 1788 P_________P___ EP041988 25.5500 -135.960 TD 22 1009 -1 25.5424 -135.948 1 22 1 220
1988202N15248 1988 36 EP MM DANIEL 1988-07-26 18:00:00 TS 25.5000 -136.000 20 1010 hurdat_epa main 1788 O_________O___ hurdat_epa EP041988 25.5000 -136.000 TD 20 1010 -1 25.5000 -136.000 1 20 1 211

IBTrACS Databaseについて

本データベースは、米国NOAAが公開する1842年以降の世界の熱帯低気圧のベストトラックデータアーカイブInternational Best Track Archive for Climate Stewardship (IBTrACS)を、ウェブで閲覧しやすい形式に変換したものです。

最終更新日:2021-12-03